Time;durP1;ratioP1;P1;durP2;ratioP2;P2;SDS_P1;SDS_P2;PMS_P1;PMS_P2;Temp;Humidity;BMP_temperature;BMP_pressure;BME280_temperature;BME280_humidity;BME280_pressure;Samples;Min_cycle;Max_cycle;Signal;HPM_P1;HPM_P2
2021/12/09 00:02:20;;;;;;;52.47;20.85;;;;;;;2.04;100.00;99473.94;5229529;28;20025;-77
2021/12/09 00:04:54;;;;;;;49.92;19.67;;;;;;;2.11;100.00;99464.34;5212926;28;20523;-77
2021/12/09 00:07:24;;;;;;;46.90;20.33;;;;;;;2.02;100.00;99465.38;5211573;28;20128;-77
2021/12/09 00:09:55;;;;;;;52.03;21.10;;;;;;;1.95;100.00;99473.22;5226187;28;20037;-77
2021/12/09 00:12:27;;;;;;;46.25;20.23;;;;;;;1.88;100.00;99471.66;5223867;28;20430;-77
2021/12/09 00:14:58;;;;;;;47.10;20.08;;;;;;;1.94;100.00;99467.25;5229599;28;20082;-77
2021/12/09 00:17:28;;;;;;;47.78;20.17;;;;;;;1.90;100.00;99475.91;5208285;28;20079;-77
2021/12/09 00:19:59;;;;;;;46.83;19.58;;;;;;;1.99;100.00;99477.47;5224355;28;20064;-77
2021/12/09 00:22:29;;;;;;;46.80;19.60;;;;;;;2.05;100.00;99478.22;5225883;28;20411;-77
2021/12/09 00:24:59;;;;;;;45.88;20.13;;;;;;;2.11;100.00;99474.63;5225463;28;20091;-77
2021/12/09 00:27:29;;;;;;;44.85;19.65;;;;;;;2.11;100.00;99477.22;5225724;28;20136;-77
2021/12/09 00:30:00;;;;;;;43.90;19.00;;;;;;;2.23;100.00;99475.28;5231099;28;20043;-77
2021/12/09 00:32:30;;;;;;;43.00;18.75;;;;;;;2.24;100.00;99470.94;5229089;28;20372;-77
2021/12/09 00:35:03;;;;;;;41.28;18.48;;;;;;;2.24;100.00;99476.09;5224473;28;20021;-77
2021/12/09 00:37:39;;;;;;;40.95;17.85;;;;;;;2.19;100.00;99483.09;5224361;28;20498;-77
2021/12/09 00:40:09;;;;;;;38.83;18.20;;;;;;;2.31;100.00;99488.84;5225019;28;20260;-78
2021/12/09 00:42:39;;;;;;;50.90;20.25;;;;;;;2.25;100.00;99495.84;5224226;28;20047;-77
2021/12/09 00:45:10;;;;;;;48.65;20.92;;;;;;;2.24;100.00;99496.72;5233889;28;20031;-78
2021/12/09 00:47:40;;;;;;;55.40;21.05;;;;;;;2.29;100.00;99505.19;5223789;28;20074;-77
2021/12/09 00:50:11;;;;;;;49.72;20.83;;;;;;;2.33;100.00;99514.59;5224669;28;20032;-77
2021/12/09 00:52:41;;;;;;;52.00;20.70;;;;;;;2.18;100.00;99522.63;5225159;28;20033;-77
2021/12/09 00:55:12;;;;;;;52.85;21.67;;;;;;;2.11;100.00;99511.56;5224425;28;20056;-77
2021/12/09 00:57:44;;;;;;;47.42;20.85;;;;;;;2.14;100.00;99528.72;5225035;28;20029;-77
2021/12/09 01:00:20;;;;;;;53.00;21.10;;;;;;;2.04;100.00;99524.59;5229735;28;20020;-77
2021/12/09 01:02:50;;;;;;;52.53;21.25;;;;;;;1.88;100.00;99516.31;5228533;28;20096;-77
2021/12/09 01:05:21;;;;;;;54.65;21.45;;;;;;;1.96;100.00;99511.03;5223848;28;20108;-77
2021/12/09 01:07:51;;;;;;;55.72;20.63;;;;;;;1.85;100.00;99521.50;5214392;28;20099;-77
2021/12/09 01:10:22;;;;;;;53.53;22.23;;;;;;;1.80;100.00;99522.47;5224606;28;20451;-77
2021/12/09 01:12:52;;;;;;;55.08;21.13;;;;;;;1.75;100.00;99519.09;5225114;28;20033;-77
2021/12/09 01:15:23;;;;;;;57.55;22.85;;;;;;;1.73;100.00;99495.13;5232978;28;20544;-77
2021/12/09 01:17:54;;;;;;;55.13;20.45;;;;;;;1.73;100.00;99489.13;5222466;28;20033;-77
2021/12/09 01:20:26;;;;;;;54.38;21.23;;;;;;;1.61;100.00;99487.59;5223285;28;20040;-77
2021/12/09 01:22:57;;;;;;;53.35;20.40;;;;;;;1.65;100.00;99493.56;5222407;28;20040;-77
2021/12/09 01:25:36;;;;;;;62.13;22.75;;;;;;;1.64;100.00;99495.28;5223744;28;20017;-76
2021/12/09 01:28:12;;;;;;;52.45;20.85;;;;;;;1.53;100.00;99499.75;5222782;28;20028;-76
2021/12/09 01:30:42;;;;;;;51.97;20.33;;;;;;;1.61;100.00;99508.19;5229035;28;20516;-77
2021/12/09 01:33:13;;;;;;;52.03;19.95;;;;;;;1.55;100.00;99492.03;5226609;28;20025;-77
2021/12/09 01:35:48;;;;;;;47.47;20.70;;;;;;;1.52;100.00;99498.06;5214621;28;20074;-77
2021/12/09 01:38:18;;;;;;;54.00;19.45;;;;;;;1.50;100.00;99499.81;5217559;28;20036;-77
2021/12/09 01:40:49;;;;;;;50.35;20.40;;;;;;;1.37;100.00;99503.47;5222913;28;20036;-77
2021/12/09 01:43:19;;;;;;;53.13;19.92;;;;;;;1.37;100.00;99506.03;5227446;28;20197;-77
2021/12/09 01:46:04;;;;;;;52.85;20.02;;;;;;;1.45;100.00;99508.50;5223645;28;20033;-77
2021/12/09 01:48:36;;;;;;;48.65;18.20;;;;;;;1.42;100.00;99501.66;5226808;28;20037;-77
2021/12/09 01:51:07;;;;;;;43.20;18.42;;;;;;;1.44;100.00;99493.94;5226751;28;20044;-77
2021/12/09 01:53:38;;;;;;;46.67;19.60;;;;;;;1.42;100.00;99499.09;5226351;28;20029;-77
2021/12/09 01:56:23;;;;;;;45.08;18.77;;;;;;;1.48;100.00;99499.00;5226300;28;20093;-77
2021/12/09 01:58:59;;;;;;;49.28;18.42;;;;;;;1.48;100.00;99491.28;5225605;28;20033;-77
2021/12/09 02:01:31;;;;;;;45.70;18.77;;;;;;;1.36;100.00;99481.19;5233416;28;20064;-77
2021/12/09 02:04:06;;;;;;;54.67;20.52;;;;;;;1.44;100.00;99486.19;5226792;28;20029;-77
2021/12/09 02:06:40;;;;;;;47.08;19.63;;;;;;;1.49;100.00;99486.97;5226861;28;20033;-77
2021/12/09 02:09:14;;;;;;;49.38;18.65;;;;;;;1.49;100.00;99492.97;5212257;28;20364;-77
2021/12/09 02:11:45;;;;;;;53.72;18.42;;;;;;;1.40;100.00;99487.97;5226677;28;20224;-77
2021/12/09 02:14:15;;;;;;;49.88;19.15;;;;;;;1.41;100.00;99493.97;5230819;28;20086;-77
2021/12/09 02:16:46;;;;;;;52.90;19.13;;;;;;;1.48;100.00;99496.44;5230101;28;20395;-77
2021/12/09 02:19:16;;;;;;;49.38;18.77;;;;;;;1.41;100.00;99499.97;5225758;28;20047;-77
2021/12/09 02:21:47;;;;;;;50.17;18.35;;;;;;;1.38;100.00;99504.31;5226117;28;20025;-77
2021/12/09 02:24:18;;;;;;;49.53;19.83;;;;;;;1.45;100.00;99519.66;5226006;28;20127;-77
2021/12/09 02:26:50;;;;;;;47.83;18.80;;;;;;;1.38;100.00;99512.88;5225921;28;20032;-77
2021/12/09 02:29:20;;;;;;;46.72;19.60;;;;;;;1.33;100.00;99501.81;5230516;28;20040;-77
2021/12/09 02:31:56;;;;;;;50.85;19.20;;;;;;;1.39;100.00;99499.13;5233947;28;20029;-77
2021/12/09 02:34:27;;;;;;;50.30;20.30;;;;;;;1.39;100.00;99495.72;5226265;28;20044;-77
2021/12/09 02:36:58;;;;;;;47.40;18.40;;;;;;;1.38;100.00;99494.88;5226607;28;20059;-77
2021/12/09 02:39:28;;;;;;;54.13;20.08;;;;;;;1.46;100.00;99508.47;5226187;28;20020;-77
2021/12/09 02:41:58;;;;;;;46.42;19.73;;;;;;;1.34;100.00;99508.66;5226173;28;20107;-77
2021/12/09 02:44:29;;;;;;;51.15;19.10;;;;;;;1.44;100.00;99515.34;5233420;28;20031;-77
2021/12/09 02:47:00;;;;;;;50.65;19.35;;;;;;;1.36;100.00;99516.34;5230035;28;20486;-77
2021/12/09 02:49:31;;;;;;;49.15;18.83;;;;;;;1.30;100.00;99513.88;5225889;28;20087;-77
2021/12/09 02:52:04;;;;;;;51.97;19.00;;;;;;;1.18;100.00;99517.50;5225521;28;20029;-77
2021/12/09 02:54:34;;;;;;;53.50;19.80;;;;;;;1.17;100.00;99514.94;5215087;28;20268;-76
2021/12/09 02:57:07;;;;;;;54.47;20.35;;;;;;;1.24;100.00;99514.81;5224436;28;20564;-77
2021/12/09 02:59:37;;;;;;;51.30;19.95;;;;;;;1.23;100.00;99514.84;5228556;28;20028;-77
2021/12/09 03:02:10;;;;;;;49.58;19.98;;;;;;;1.26;100.00;99522.53;5230909;28;20028;-77
2021/12/09 03:05:03;;;;;;;57.83;20.10;;;;;;;1.27;100.00;99511.34;5221645;28;20438;-77
2021/12/09 03:07:37;;;;;;;52.08;19.08;;;;;;;1.31;100.00;99508.72;5224387;28;20045;-77
2021/12/09 03:10:19;;;;;;;51.08;19.83;;;;;;;1.26;100.00;99507.09;5225315;28;20500;-77
2021/12/09 03:12:54;;;;;;;51.13;19.67;;;;;;;1.25;100.00;99513.09;5224129;28;20040;-77
2021/12/09 03:15:24;;;;;;;56.15;20.42;;;;;;;1.22;100.00;99508.03;5236029;28;20055;-77
2021/12/09 03:17:54;;;;;;;50.85;20.38;;;;;;;1.19;100.00;99506.31;5226536;28;20068;-76
2021/12/09 03:20:27;;;;;;;53.80;20.77;;;;;;;1.26;100.00;99505.34;5227674;28;20538;-77
2021/12/09 03:22:57;;;;;;;50.50;19.83;;;;;;;1.23;100.00;99507.97;5226879;28;20028;-77
2021/12/09 03:25:27;;;;;;;52.42;19.92;;;;;;;1.17;100.00;99500.38;5226969;28;20543;-75
2021/12/09 03:27:58;;;;;;;50.42;19.25;;;;;;;1.23;100.00;99497.69;5226449;28;20065;-77
2021/12/09 03:30:28;;;;;;;52.65;20.45;;;;;;;1.22;100.00;99492.59;5236512;28;20046;-77
2021/12/09 03:32:58;;;;;;;46.45;19.58;;;;;;;1.16;100.00;99493.53;5229036;28;20033;-77
2021/12/09 03:35:28;;;;;;;52.65;19.38;;;;;;;1.31;100.00;99495.84;5224639;28;20207;-77
2021/12/09 03:37:59;;;;;;;52.67;19.77;;;;;;;1.38;100.00;99502.59;5216850;28;20033;-77
2021/12/09 03:40:30;;;;;;;48.70;18.90;;;;;;;1.29;100.00;99505.31;5227449;28;20033;-77
2021/12/09 03:43:00;;;;;;;56.30;20.40;;;;;;;1.23;100.00;99496.84;5231260;28;20043;-77
2021/12/09 03:45:30;;;;;;;50.08;19.23;;;;;;;1.27;100.00;99490.78;5237210;28;20025;-77
2021/12/09 03:48:02;;;;;;;53.00;19.58;;;;;;;1.31;100.00;99493.28;5227109;28;20055;-77
2021/12/09 03:50:33;;;;;;;47.80;18.98;;;;;;;1.30;100.00;99493.28;5218739;28;20028;-77
2021/12/09 03:53:03;;;;;;;50.13;19.45;;;;;;;1.31;100.00;99493.28;5224975;28;20025;-77
2021/12/09 03:55:34;;;;;;;48.40;19.35;;;;;;;1.46;100.00;99502.47;5226098;28;20029;-76
2021/12/09 03:58:05;;;;;;;50.72;20.58;;;;;;;1.40;100.00;99503.41;5225911;28;20043;-75
2021/12/09 04:00:35;;;;;;;49.40;19.70;;;;;;;1.43;100.00;99502.53;5233676;28;20114;-77
2021/12/09 04:03:07;;;;;;;49.00;20.50;;;;;;;1.37;100.00;99488.03;5229821;28;20100;-76
2021/12/09 04:05:38;;;;;;;53.58;19.75;;;;;;;1.39;100.00;99481.13;5226077;28;20095;-77
2021/12/09 04:08:08;;;;;;;52.35;20.08;;;;;;;1.42;100.00;99483.63;5225257;28;20037;-77
2021/12/09 04:10:39;;;;;;;51.85;19.75;;;;;;;1.33;100.00;99485.53;5225671;28;20028;-77
2021/12/09 04:13:10;;;;;;;47.75;19.70;;;;;;;1.44;100.00;99499.06;5225724;28;20546;-77
2021/12/09 04:15:41;;;;;;;50.42;20.13;;;;;;;1.37;100.00;99510.34;5220972;28;20059;-75
2021/12/09 04:18:11;;;;;;;45.38;18.35;;;;;;;1.42;100.00;99516.25;5224189;28;20029;-75
2021/12/09 04:20:41;;;;;;;49.42;20.20;;;;;;;1.35;100.00;99524.94;5225053;28;20474;-76
2021/12/09 04:23:12;;;;;;;53.88;19.52;;;;;;;1.39;100.00;99519.72;5224759;28;20438;-76
2021/12/09 04:25:42;;;;;;;52.58;19.20;;;;;;;1.40;100.00;99529.16;5225218;28;20051;-76
2021/12/09 04:28:12;;;;;;;53.17;19.88;;;;;;;1.37;100.00;99534.34;5225196;28;20047;-76
2021/12/09 04:30:42;;;;;;;46.05;19.60;;;;;;;1.45;100.00;99536.81;5234562;28;20103;-77
2021/12/09 04:33:13;;;;;;;50.47;20.00;;;;;;;1.38;100.00;99537.78;5228509;28;20089;-76
2021/12/09 04:35:43;;;;;;;55.58;21.20;;;;;;;1.33;100.00;99535.28;5224567;28;20443;-77
2021/12/09 04:38:14;;;;;;;56.88;21.00;;;;;;;1.26;100.00;99536.22;5224376;28;20063;-75
2021/12/09 04:40:44;;;;;;;53.65;20.27;;;;;;;1.38;100.00;99530.91;5224751;28;20078;-76
2021/12/09 04:43:15;;;;;;;58.20;22.15;;;;;;;1.36;100.00;99524.06;5228342;28;20080;-77
2021/12/09 04:45:47;;;;;;;56.88;21.23;;;;;;;1.34;100.00;99524.09;5232998;28;20392;-76
2021/12/09 04:48:17;;;;;;;48.92;19.30;;;;;;;1.35;100.00;99522.38;5224609;28;20037;-77
2021/12/09 04:50:48;;;;;;;53.85;21.30;;;;;;;1.23;100.00;99528.56;5224639;28;20029;-77
2021/12/09 04:53:19;;;;;;;55.50;21.27;;;;;;;1.35;100.00;99538.66;5222924;28;20108;-76
2021/12/09 04:55:49;;;;;;;53.58;21.48;;;;;;;1.27;100.00;99537.09;5222652;28;20524;-76
2021/12/09 04:58:20;;;;;;;54.72;21.63;;;;;;;1.39;100.00;99539.47;5222844;28;20029;-77
2021/12/09 05:00:52;;;;;;;62.97;22.05;;;;;;;1.30;100.00;99550.75;5233394;28;20423;-76
2021/12/09 05:03:22;;;;;;;48.78;20.33;;;;;;;1.31;100.00;99538.72;5216841;28;20021;-75
2021/12/09 05:05:55;;;;;;;56.60;22.00;;;;;;;1.31;100.00;99552.47;5222676;28;20017;-76
2021/12/09 05:08:31;;;;;;;60.00;21.85;;;;;;;1.27;100.00;99553.34;5223148;28;20036;-76
2021/12/09 05:11:14;;;;;;;59.58;21.15;;;;;;;1.26;100.00;99559.38;5224242;28;20422;-75
2021/12/09 05:13:45;;;;;;;63.08;22.83;;;;;;;1.26;100.00;99553.41;5224714;28;20029;-76
2021/12/09 05:16:15;;;;;;;57.17;21.73;;;;;;;1.28;100.00;99555.09;5230841;28;20497;-76
2021/12/09 05:18:45;;;;;;;58.80;22.80;;;;;;;1.23;100.00;99551.72;5224930;28;20387;-75
2021/12/09 05:21:17;;;;;;;57.17;21.92;;;;;;;1.34;100.00;99549.84;5228330;28;20033;-77
2021/12/09 05:23:47;;;;;;;61.20;22.45;;;;;;;1.37;100.00;99542.06;5227814;28;20029;-76
2021/12/09 05:26:19;;;;;;;63.05;21.75;;;;;;;1.27;100.00;99555.09;5217978;28;20079;-75
2021/12/09 05:28:55;;;;;;;59.10;22.42;;;;;;;1.36;100.00;99560.94;5228882;28;20482;-77
2021/12/09 05:34:16;;;;;;;59.90;22.55;;;;;;;1.34;100.00;99575.56;5224713;28;20112;-75
2021/12/09 05:36:46;;;;;;;60.63;23.17;;;;;;;1.27;100.00;99575.69;5227227;28;20096;-77
2021/12/09 05:39:17;;;;;;;63.13;23.13;;;;;;;1.33;100.00;99566.16;5227958;28;20028;-76
2021/12/09 05:41:48;;;;;;;59.30;21.15;;;;;;;1.42;100.00;99560.00;5228783;28;20136;-76
2021/12/09 05:44:18;;;;;;;60.45;22.42;;;;;;;1.38;100.00;99561.78;5223820;28;20050;-77
2021/12/09 05:46:49;;;;;;;57.15;22.17;;;;;;;1.30;100.00;99567.91;5230752;28;20033;-77
2021/12/09 05:49:20;;;;;;;59.47;22.33;;;;;;;1.31;100.00;99569.59;5229668;28;20264;-77
2021/12/09 05:51:50;;;;;;;62.67;22.33;;;;;;;1.25;100.00;99560.25;5220797;28;20033;-77
2021/12/09 05:54:21;;;;;;;67.13;22.98;;;;;;;1.29;100.00;99568.78;5229304;28;20489;-77
2021/12/09 05:56:51;;;;;;;59.53;21.73;;;;;;;1.28;100.00;99565.38;5230127;28;20060;-77
2021/12/09 05:59:22;;;;;;;63.97;22.42;;;;;;;1.39;100.00;99572.94;5233481;28;20073;-77
2021/12/09 06:01:53;;;;;;;67.30;22.58;;;;;;;1.50;100.00;99584.75;5238807;28;20092;-77
2021/12/09 06:04:24;;;;;;;59.72;21.77;;;;;;;1.46;100.00;99584.81;5230867;28;20024;-77
2021/12/09 06:06:54;;;;;;;61.72;22.60;;;;;;;1.55;100.00;99582.97;5219890;28;20163;-76
2021/12/09 06:09:24;;;;;;;58.45;21.90;;;;;;;1.52;100.00;99590.72;5240717;22;20453;-80
2021/12/09 06:11:55;;;;;;;64.28;23.40;;;;;;;1.53;100.00;99587.28;5217564;28;20044;-80
2021/12/09 06:14:25;;;;;;;64.32;22.83;;;;;;;1.61;100.00;99579.44;5218324;28;20036;-80
2021/12/09 06:16:55;;;;;;;62.80;22.83;;;;;;;1.64;100.00;99580.25;5212951;28;20026;-80
2021/12/09 06:19:26;;;;;;;56.55;21.48;;;;;;;1.72;100.00;99588.69;5207707;28;20087;-80
2021/12/09 06:21:56;;;;;;;58.90;21.98;;;;;;;1.68;100.00;99578.47;5210013;28;20025;-80
2021/12/09 06:24:26;;;;;;;51.78;20.58;;;;;;;1.59;100.00;99579.44;5208724;28;20133;-81
2021/12/09 06:26:58;;;;;;;60.30;21.83;;;;;;;1.50;100.00;99577.03;5209609;28;20033;-81
2021/12/09 06:29:29;;;;;;;58.92;22.33;;;;;;;1.65;100.00;99581.94;5213717;28;20532;-80
2021/12/09 06:32:01;;;;;;;52.95;20.20;;;;;;;1.62;100.00;99583.72;5216249;28;20112;-80
2021/12/09 06:34:32;;;;;;;63.70;22.92;;;;;;;1.59;100.00;99571.72;5208384;28;20033;-80
2021/12/09 06:37:02;;;;;;;60.88;21.70;;;;;;;1.52;100.00;99558.97;5208459;28;20230;-79
2021/12/09 06:39:32;;;;;;;55.65;21.65;;;;;;;1.47;100.00;99555.63;5206248;28;20462;-80
2021/12/09 06:42:03;;;;;;;60.13;21.92;;;;;;;1.60;100.00;99560.56;5202966;28;20018;-80
2021/12/09 06:44:33;;;;;;;59.00;21.55;;;;;;;1.58;100.00;99571.78;5214544;28;20033;-80
2021/12/09 06:47:04;;;;;;;56.97;20.85;;;;;;;1.54;100.00;99577.84;5208443;28;20009;-80
2021/12/09 06:49:34;;;;;;;58.40;21.70;;;;;;;1.36;100.00;99590.97;5204820;28;20048;-81
2021/12/09 06:52:05;;;;;;;56.20;22.05;;;;;;;1.49;100.00;99595.94;5205053;28;20041;-81
2021/12/09 06:54:35;;;;;;;56.45;21.20;;;;;;;1.34;100.00;99592.72;5205453;28;20025;-81
2021/12/09 06:57:06;;;;;;;53.55;20.17;;;;;;;1.42;100.00;99591.72;5205115;28;20028;-81
2021/12/09 06:59:36;;;;;;;56.85;20.75;;;;;;;1.45;100.00;99594.28;5207482;28;20040;-81
2021/12/09 07:02:08;;;;;;;55.05;21.60;;;;;;;1.33;100.00;99586.75;5213209;28;20021;-81
2021/12/09 07:04:38;;;;;;;62.20;22.40;;;;;;;1.36;100.00;99596.13;5205403;28;20092;-81
2021/12/09 07:07:08;;;;;;;53.55;20.80;;;;;;;1.28;100.00;99601.41;5204874;28;20101;-80
2021/12/09 07:09:40;;;;;;;62.10;21.40;;;;;;;1.26;100.00;99612.56;5203404;28;20046;-81
2021/12/09 07:12:11;;;;;;;62.38;21.92;;;;;;;1.29;100.00;99618.53;5200369;28;20490;-81
2021/12/09 07:14:43;;;;;;;56.53;21.17;;;;;;;1.38;100.00;99620.97;5212614;28;20049;-81
2021/12/09 07:17:13;;;;;;;60.65;21.20;;;;;;;1.34;100.00;99621.03;5207801;28;20036;-80
2021/12/09 07:19:44;;;;;;;59.90;20.98;;;;;;;1.34;100.00;99627.03;5205210;28;20057;-80
2021/12/09 07:22:14;;;;;;;55.75;21.52;;;;;;;1.23;100.00;99628.88;5204176;28;20029;-80
2021/12/09 07:24:45;;;;;;;56.90;20.90;;;;;;;1.33;100.00;99630.47;5204571;28;20029;-80
2021/12/09 07:27:15;;;;;;;62.85;21.23;;;;;;;1.30;100.00;99630.53;5203814;28;20281;-81
2021/12/09 07:29:45;;;;;;;59.75;21.92;;;;;;;1.39;100.00;99638.09;5209716;28;20103;-80
2021/12/09 07:32:16;;;;;;;57.88;20.92;;;;;;;1.42;100.00;99635.47;5211629;28;20503;-81
2021/12/09 07:34:46;;;;;;;64.32;21.73;;;;;;;1.32;100.00;99639.06;5204054;28;20030;-81
2021/12/09 07:37:16;;;;;;;56.25;21.30;;;;;;;1.44;100.00;99644.03;5202275;28;20025;-81
2021/12/09 07:39:47;;;;;;;64.97;22.55;;;;;;;1.42;100.00;99648.34;5202767;28;20468;-80
2021/12/09 07:42:17;;;;;;;61.22;21.45;;;;;;;1.44;100.00;99644.03;5204025;28;20071;-80
2021/12/09 07:44:48;;;;;;;61.08;22.25;;;;;;;1.40;100.00;99636.41;5213471;28;20033;-80
2021/12/09 07:47:18;;;;;;;58.85;22.25;;;;;;;1.42;100.00;99640.63;5205121;28;20037;-80
2021/12/09 07:49:50;;;;;;;57.17;20.98;;;;;;;1.40;100.00;99637.22;5202311;28;20139;-80
2021/12/09 07:52:20;;;;;;;57.42;22.27;;;;;;;1.33;100.00;99635.63;5202281;28;20100;-80
2021/12/09 07:54:50;;;;;;;58.03;20.45;;;;;;;1.46;100.00;99631.16;5202434;28;20040;-80
2021/12/09 07:57:20;;;;;;;58.90;21.42;;;;;;;1.37;100.00;99621.00;5201602;28;20021;-81
2021/12/09 07:59:51;;;;;;;61.95;22.80;;;;;;;1.36;100.00;99622.72;5206937;28;20221;-81
2021/12/09 08:02:21;;;;;;;60.40;20.83;;;;;;;1.39;100.00;99620.09;5209500;28;20494;-80
2021/12/09 08:04:51;;;;;;;52.35;20.10;;;;;;;1.39;100.00;99620.09;5203417;28;20026;-80
2021/12/09 08:07:22;;;;;;;57.38;21.42;;;;;;;1.27;100.00;99619.41;5203594;28;20149;-81
2021/12/09 08:09:52;;;;;;;53.05;21.25;;;;;;;1.29;100.00;99618.53;5203453;28;20037;-80
2021/12/09 08:12:23;;;;;;;56.13;21.40;;;;;;;1.36;100.00;99621.84;5203036;28;20546;-80
2021/12/09 08:14:53;;;;;;;61.85;22.50;;;;;;;1.26;100.00;99631.41;5212946;28;20078;-80
2021/12/09 08:20:14;;;;;;;66.45;22.02;;;;;;;1.23;100.00;99633.19;5199818;28;20155;-81
2021/12/09 08:22:45;;;;;;;61.45;22.40;;;;;;;1.19;100.00;99629.81;5202976;28;20030;-81
2021/12/09 08:25:15;;;;;;;63.33;23.05;;;;;;;1.18;100.00;99628.13;5203670;28;20280;-80
2021/12/09 08:27:45;;;;;;;60.30;22.45;;;;;;;1.28;100.00;99626.25;5203572;28;20026;-80
2021/12/09 08:30:21;;;;;;;60.88;22.00;;;;;;;1.39;100.00;99619.25;5211234;28;20033;-80
2021/12/09 08:32:54;;;;;;;60.67;22.15;;;;;;;1.34;100.00;99616.75;5206600;28;20641;-79
2021/12/09 08:35:25;;;;;;;61.53;22.60;;;;;;;1.47;100.00;99617.41;5201503;28;20097;-79
2021/12/09 08:37:58;;;;;;;60.70;22.17;;;;;;;1.33;100.00;99607.31;5201406;28;20116;-79
2021/12/09 08:40:28;;;;;;;59.78;21.85;;;;;;;1.38;100.00;99610.66;5201090;28;20022;-80
2021/12/09 08:42:58;;;;;;;63.30;22.00;;;;;;;1.51;100.00;99619.06;5203388;28;20040;-80
2021/12/09 08:45:29;;;;;;;58.88;22.10;;;;;;;1.51;100.00;99624.19;5210895;28;20036;-79
2021/12/09 08:48:00;;;;;;;58.67;22.25;;;;;;;1.56;100.00;99622.44;5200215;28;20407;-79
2021/12/09 08:50:33;;;;;;;69.28;23.15;;;;;;;1.48;100.00;99632.84;5201360;28;20037;-80
2021/12/09 08:53:08;;;;;;;63.47;23.05;;;;;;;1.38;100.00;99638.13;5200551;28;20112;-79
2021/12/09 08:55:40;;;;;;;57.90;22.45;;;;;;;1.39;100.00;99640.69;5201472;28;20080;-80
2021/12/09 08:58:13;;;;;;;62.13;22.65;;;;;;;1.56;100.00;99648.16;5197095;28;20576;-79
2021/12/09 09:00:44;;;;;;;62.90;22.35;;;;;;;1.54;100.00;99643.03;5209461;28;20247;-79
2021/12/09 09:03:14;;;;;;;62.08;23.00;;;;;;;1.43;100.00;99641.50;5204257;28;20052;-79
2021/12/09 09:05:45;;;;;;;58.75;21.98;;;;;;;1.33;100.00;99650.19;5200614;28;20022;-79
2021/12/09 09:08:16;;;;;;;57.08;23.10;;;;;;;1.34;100.00;99662.19;5201629;28;20100;-80
2021/12/09 09:10:47;;;;;;;63.95;22.73;;;;;;;1.48;100.00;99655.13;5203051;28;20037;-80
2021/12/09 09:13:17;;;;;;;63.33;22.08;;;;;;;1.51;100.00;99657.66;5208394;28;20033;-79
2021/12/09 09:15:48;;;;;;;58.90;21.55;;;;;;;1.43;100.00;99662.91;5208437;28;20178;-80
2021/12/09 09:18:19;;;;;;;64.53;22.40;;;;;;;1.42;100.00;99660.38;5200593;28;20056;-79
2021/12/09 09:20:49;;;;;;;61.47;23.50;;;;;;;1.41;100.00;99666.41;5200059;28;20071;-80
2021/12/09 09:23:21;;;;;;;61.47;22.42;;;;;;;1.38;100.00;99659.56;5201063;28;20096;-79
2021/12/09 09:25:51;;;;;;;60.35;21.73;;;;;;;1.50;100.00;99663.69;5200899;28;20033;-80
2021/12/09 09:28:22;;;;;;;61.85;23.38;;;;;;;1.46;100.00;99660.31;5200383;28;20032;-80
2021/12/09 09:30:56;;;;;;;65.47;22.73;;;;;;;1.57;100.00;99661.00;5209543;28;20040;-80
2021/12/09 09:33:29;;;;;;;61.45;21.55;;;;;;;1.67;100.00;99662.59;5202401;28;20033;-80
2021/12/09 09:36:00;;;;;;;66.68;22.45;;;;;;;1.75;100.00;99662.47;5200413;28;20039;-79
2021/12/09 09:38:30;;;;;;;60.55;22.65;;;;;;;1.70;100.00;99662.53;5201381;28;20431;-79
2021/12/09 09:41:10;;;;;;;62.30;23.23;;;;;;;1.68;100.00;99663.41;5201417;28;20037;-79
2021/12/09 09:46:22;;;;;;;63.63;23.40;;;;;;;1.70;100.00;99661.66;5208657;28;20021;-79
2021/12/09 09:48:54;;;;;;;64.15;23.33;;;;;;;1.99;100.00;99650.06;5201087;28;20116;-80
2021/12/09 09:51:26;;;;;;;57.65;22.00;;;;;;;1.82;100.00;99646.91;5201516;28;20509;-80
2021/12/09 09:53:58;;;;;;;64.15;22.98;;;;;;;1.87;100.00;99635.66;5201016;28;20065;-80
2021/12/09 09:56:30;;;;;;;67.75;22.88;;;;;;;1.69;100.00;99644.53;5200719;28;20087;-80
2021/12/09 09:59:05;;;;;;;65.35;22.75;;;;;;;1.85;100.00;99636.56;5203655;28;20643;-79
2021/12/09 10:01:39;;;;;;;61.08;22.60;;;;;;;1.89;100.00;99640.78;5209824;28;20070;-79
2021/12/09 10:04:11;;;;;;;65.75;24.38;;;;;;;1.81;100.00;99637.47;5199765;28;20486;-79
2021/12/09 10:06:44;;;;;;;64.00;23.27;;;;;;;1.79;100.00;99636.66;5204088;28;20044;-79
2021/12/09 10:09:16;;;;;;;63.55;23.38;;;;;;;1.92;100.00;99638.13;5203955;28;20032;-80
2021/12/09 10:11:46;;;;;;;57.40;22.67;;;;;;;2.07;100.00;99643.03;5203742;28;20029;-80
2021/12/09 10:14:20;;;;;;;66.00;22.27;;;;;;;1.93;100.00;99642.41;5211796;28;20511;-79
2021/12/09 10:17:14;;;;;;;63.42;24.05;;;;;;;2.02;100.00;99634.56;5207777;28;20037;-79
2021/12/09 10:19:47;;;;;;;62.60;23.17;;;;;;;1.99;100.00;99625.13;5200227;28;20025;-79
2021/12/09 10:22:22;;;;;;;64.13;24.25;;;;;;;2.10;100.00;99643.00;5203731;28;20029;-80
2021/12/09 10:24:56;;;;;;;65.40;22.92;;;;;;;1.89;100.00;99648.50;5202618;28;20110;-79
2021/12/09 10:27:31;;;;;;;69.95;24.40;;;;;;;2.10;100.00;99649.00;5203653;28;20545;-79
2021/12/09 10:30:08;;;;;;;62.75;24.00;;;;;;;1.98;100.00;99643.22;5210909;28;20513;-80
2021/12/09 10:32:40;;;;;;;65.00;24.15;;;;;;;1.92;100.00;99648.44;5207918;28;20108;-79
2021/12/09 10:35:17;;;;;;;61.25;24.25;;;;;;;1.98;100.00;99648.38;5200171;28;20506;-80
2021/12/09 10:37:49;;;;;;;63.63;25.50;;;;;;;1.90;100.00;99638.19;5203211;28;20087;-79
2021/12/09 10:40:23;;;;;;;71.15;24.40;;;;;;;1.98;100.00;99638.06;5204207;28;20033;-81
2021/12/09 10:42:56;;;;;;;62.83;25.55;;;;;;;2.08;100.00;99635.31;5205819;28;20037;-79
2021/12/09 10:45:36;;;;;;;66.20;23.63;;;;;;;2.02;100.00;99626.81;5213846;28;20025;-80
2021/12/09 10:51:25;;;;;;;65.30;23.95;;;;;;;1.86;100.00;99618.47;5200438;28;20384;-79
2021/12/09 10:53:47;;;;;;;68.32;24.33;;;;;;;1.84;100.00;99620.22;5198772;28;20052;-81
2021/12/09 10:56:26;;;;;;;66.18;24.27;;;;;;;2.14;100.00;99619.72;5202718;28;20025;-79
2021/12/09 10:58:57;;;;;;;67.97;24.77;;;;;;;2.23;100.00;99629.03;5203722;28;20072;-80
2021/12/09 11:01:28;;;;;;;64.90;24.65;;;;;;;2.12;100.00;99620.63;5208150;28;20502;-81
2021/12/09 11:04:03;;;;;;;68.13;25.00;;;;;;;2.27;100.00;99604.91;5204119;28;20545;-81
2021/12/09 11:06:38;;;;;;;68.22;25.70;;;;;;;2.38;100.00;99610.72;5204396;28;20491;-81
2021/12/09 11:09:12;;;;;;;60.05;23.58;;;;;;;2.32;100.00;99623.72;5204404;28;20064;-81
2021/12/09 11:11:47;;;;;;;66.22;25.05;;;;;;;2.46;100.00;99612.28;5203991;28;20025;-81
2021/12/09 11:14:21;;;;;;;59.58;23.45;;;;;;;2.46;100.00;99609.69;5210591;28;20032;-80
2021/12/09 11:17:03;;;;;;;63.28;24.17;;;;;;;2.50;100.00;99603.59;5205972;28;20053;-80
2021/12/09 11:19:40;;;;;;;67.72;25.95;;;;;;;2.60;100.00;99601.69;5202992;28;20116;-80
2021/12/09 11:22:18;;;;;;;56.33;22.58;;;;;;;2.42;100.00;99602.03;5202928;28;20048;-80
2021/12/09 11:24:57;;;;;;;63.78;24.55;;;;;;;2.31;100.00;99598.84;5202809;28;20026;-80
2021/12/09 11:27:29;;;;;;;63.92;23.60;;;;;;;2.34;100.00;99583.31;5204321;28;20483;-80
2021/12/09 11:30:14;;;;;;;63.95;25.30;;;;;;;2.35;100.00;99588.41;5209783;28;20049;-81
2021/12/09 11:32:52;;;;;;;64.30;25.33;;;;;;;2.63;100.00;99576.69;5208229;28;20188;-80
2021/12/09 11:35:30;;;;;;;62.05;24.15;;;;;;;2.64;100.00;99577.53;5205945;28;20028;-80
2021/12/09 11:38:18;;;;;;;66.57;24.83;;;;;;;2.62;100.00;99577.59;5204359;28;20116;-81
2021/12/09 11:40:52;;;;;;;63.13;23.33;;;;;;;2.68;100.00;99579.19;5201667;28;20040;-79
2021/12/09 11:43:26;;;;;;;66.20;25.00;;;;;;;2.55;100.00;99570.84;5204511;28;20100;-79
2021/12/09 11:45:59;;;;;;;62.03;24.70;;;;;;;2.50;100.00;99577.81;5208958;28;20383;-80
2021/12/09 11:48:30;;;;;;;62.08;25.35;;;;;;;2.56;100.00;99582.00;5202037;28;20029;-79
2021/12/09 11:51:01;;;;;;;65.35;25.48;;;;;;;2.74;100.00;99586.78;5201680;28;20025;-79